Time;durP1;ratioP1;P1;durP2;ratioP2;P2;SDS_P1;SDS_P2;PMS_P1;PMS_P2;Temp;Humidity;BMP_temperature;BMP_pressure;BME280_temperature;BME280_humidity;BME280_pressure;Samples;Min_cycle;Max_cycle;Signal;HPM_P1;HPM_P2
2021/12/01 00:01:12;;;;;;;4.53;2.30;;;;;;;4.22;83.68;98249.84;4260767;33;33885;-76
2021/12/01 00:03:41;;;;;;;3.95;2.15;;;;;;;4.49;82.90;98251.50;4262135;33;35194;-75
2021/12/01 00:06:10;;;;;;;5.05;2.45;;;;;;;4.64;82.48;98246.28;4261635;33;35109;-75
2021/12/01 00:08:38;;;;;;;2.90;2.10;;;;;;;4.01;84.93;98243.91;4261077;33;33803;-75
2021/12/01 00:11:06;;;;;;;7.20;2.62;;;;;;;4.67;82.63;98247.97;4232271;33;33310;-75
2021/12/01 00:13:34;;;;;;;5.22;2.83;;;;;;;4.25;83.86;98250.69;4247931;33;35747;-75
2021/12/01 00:16:03;;;;;;;6.00;2.55;;;;;;;4.31;84.05;98248.13;4236139;33;35191;-75
2021/12/01 00:18:31;;;;;;;5.25;2.55;;;;;;;4.25;83.87;98242.97;4246850;33;34378;-75
2021/12/01 00:20:59;;;;;;;4.10;2.30;;;;;;;4.46;83.64;98261.81;4250727;33;34739;-75
2021/12/01 00:23:27;;;;;;;3.95;2.15;;;;;;;4.53;82.05;98263.50;4261921;33;35858;-75
2021/12/01 00:25:55;;;;;;;3.95;2.10;;;;;;;4.61;81.89;98261.75;4261356;33;34466;-75
2021/12/01 00:28:23;;;;;;;4.32;2.33;;;;;;;4.92;79.81;98259.03;4262068;33;33911;-75
2021/12/01 00:30:52;;;;;;;4.37;2.30;;;;;;;4.67;81.00;98266.88;4260568;33;33982;-75
2021/12/01 00:33:23;;;;;;;3.97;2.40;;;;;;;5.47;77.64;98274.16;4249201;33;35207;-75
2021/12/01 00:35:53;;;;;;;6.80;2.45;;;;;;;4.41;81.93;98271.28;4248351;33;34558;-74
2021/12/01 00:38:22;;;;;;;2.92;1.80;;;;;;;4.82;80.47;98263.37;4248583;33;34459;-75
2021/12/01 00:40:51;;;;;;;2.97;1.87;;;;;;;5.30;77.96;98273.41;4248394;33;33816;-75
2021/12/01 00:43:19;;;;;;;3.95;1.95;;;;;;;5.21;78.45;98278.66;4261708;33;35038;-74
2021/12/01 00:45:51;;;;;;;1.80;1.30;;;;;;;4.87;78.47;98278.81;4261074;33;34638;-74
2021/12/01 00:48:19;;;;;;;2.60;1.55;;;;;;;5.07;77.61;98281.31;4261070;33;33647;-73
2021/12/01 00:50:49;;;;;;;3.08;1.73;;;;;;;5.35;75.82;98294.03;4260893;33;34715;-74
2021/12/01 00:53:17;;;;;;;3.72;1.58;;;;;;;5.37;75.43;98289.72;4248457;33;35019;-73
2021/12/01 00:55:47;;;;;;;2.05;1.27;;;;;;;5.37;75.21;98280.25;4261016;33;34469;-75
2021/12/01 00:58:16;;;;;;;2.55;1.70;;;;;;;5.35;75.22;98279.41;4249154;33;33743;-73
2021/12/01 01:00:44;;;;;;;1.50;1.20;;;;;;;4.97;76.10;98277.91;4261137;33;34382;-73
2021/12/01 01:03:12;;;;;;;4.20;2.00;;;;;;;5.60;74.89;98289.56;4248912;33;36032;-74
2021/12/01 01:05:41;;;;;;;2.28;1.50;;;;;;;5.28;75.70;98285.47;4260173;33;35117;-73
2021/12/01 01:08:09;;;;;;;3.25;1.50;;;;;;;5.62;74.10;98290.41;4248891;33;34330;-74
2021/12/01 01:18:46;;;;;;;2.17;1.42;;;;;;;5.12;75.69;98288.16;4251056;33;33785;-74
2021/12/01 01:21:15;;;;;;;1.85;1.42;;;;;;;5.29;75.41;98284.59;4260925;33;33936;-74
2021/12/01 01:23:44;;;;;;;2.95;1.70;;;;;;;5.64;74.06;98293.81;4249014;33;35174;-74
2021/12/01 01:26:15;;;;;;;3.58;1.75;;;;;;;5.57;74.05;98287.00;4247618;33;34588;-74
2021/12/01 01:28:44;;;;;;;5.03;1.67;;;;;;;5.64;74.37;98299.84;4261811;33;32879;-73
2021/12/01 01:31:13;;;;;;;2.00;1.40;;;;;;;5.28;74.90;98290.66;4248113;33;34780;-74
2021/12/01 01:33:41;;;;;;;2.87;1.70;;;;;;;5.28;74.67;98291.50;4261628;33;34971;-74
2021/12/01 01:36:10;;;;;;;3.12;1.77;;;;;;;5.26;75.28;98289.81;4236278;33;35307;-73
2021/12/01 01:38:38;;;;;;;2.62;1.80;;;;;;;4.99;75.55;98285.66;4247847;33;33636;-74
2021/12/01 01:41:09;;;;;;;2.90;1.52;;;;;;;5.24;75.41;98287.22;4248054;33;33860;-75
2021/12/01 01:43:39;;;;;;;2.75;1.58;;;;;;;5.02;75.84;98291.66;4260014;33;35154;-74
2021/12/01 01:46:08;;;;;;;4.12;2.08;;;;;;;5.28;74.74;98293.22;4260781;33;34075;-73
2021/12/01 01:48:48;;;;;;;2.17;1.62;;;;;;;5.36;75.07;98291.44;4248778;33;33754;-74
2021/12/01 01:51:19;;;;;;;2.92;1.75;;;;;;;5.19;75.07;98291.56;4249137;33;33899;-75
2021/12/01 01:53:47;;;;;;;2.90;1.83;;;;;;;5.31;75.12;98288.03;4260319;33;35903;-74
2021/12/01 01:56:15;;;;;;;4.20;2.05;;;;;;;5.05;75.91;98291.63;4259580;33;34344;-75
2021/12/01 01:58:44;;;;;;;3.67;2.17;;;;;;;5.16;75.74;98293.31;4261456;33;33584;-75
2021/12/01 02:01:34;;;;;;;3.05;1.77;;;;;;;4.98;75.83;98296.81;4257860;33;33902;-74
2021/12/01 02:04:04;;;;;;;3.00;1.87;;;;;;;5.22;75.45;98307.00;4250940;33;36054;-74
2021/12/01 02:06:32;;;;;;;2.35;1.80;;;;;;;5.13;75.75;98302.78;4260439;33;35267;-74
2021/12/01 02:09:02;;;;;;;2.05;1.75;;;;;;;4.93;76.48;98304.59;4261307;33;33676;-74
2021/12/01 02:11:31;;;;;;;4.53;2.00;;;;;;;5.28;75.10;98304.41;4247518;33;33034;-74
2021/12/01 02:13:59;;;;;;;2.50;1.87;;;;;;;5.11;75.35;98303.63;4261182;33;34998;-74
2021/12/01 02:16:27;;;;;;;2.25;1.50;;;;;;;4.97;76.40;98305.44;4260122;33;34570;-74
2021/12/01 02:18:55;;;;;;;2.40;1.67;;;;;;;4.94;76.45;98307.19;4259360;33;33815;-74
2021/12/01 02:21:27;;;;;;;2.15;1.48;;;;;;;4.84;76.77;98304.66;4260394;33;34008;-73
2021/12/01 02:24:02;;;;;;;3.22;1.85;;;;;;;5.07;75.72;98318.28;4260352;33;35013;-74
2021/12/01 02:26:32;;;;;;;4.12;1.90;;;;;;;4.93;76.45;98326.09;4249140;33;34439;-74
2021/12/01 02:29:03;;;;;;;3.15;1.75;;;;;;;4.87;77.21;98325.25;4262659;33;34506;-74
2021/12/01 02:31:36;;;;;;;2.58;1.35;;;;;;;5.17;75.47;98313.06;4249324;33;34819;-74
2021/12/01 02:34:06;;;;;;;3.05;1.77;;;;;;;5.09;75.96;98306.22;4250482;33;35141;-74
2021/12/01 02:36:35;;;;;;;2.03;1.50;;;;;;;5.28;75.33;98316.47;4249201;33;33670;-74
2021/12/01 02:39:08;;;;;;;4.22;1.90;;;;;;;5.09;75.31;98310.53;4249211;33;34483;-75
2021/12/01 02:41:36;;;;;;;2.00;1.58;;;;;;;5.07;75.82;98307.09;4261787;33;33959;-75
2021/12/01 02:44:06;;;;;;;2.47;1.73;;;;;;;4.88;76.41;98316.66;4261803;33;36003;-74
2021/12/01 02:46:35;;;;;;;4.75;1.85;;;;;;;5.38;74.02;98310.34;4249344;33;34434;-72
2021/12/01 02:49:05;;;;;;;2.10;1.65;;;;;;;5.03;74.89;98329.50;4249712;33;32948;-74
2021/12/01 02:51:36;;;;;;;4.62;1.50;;;;;;;5.04;75.78;98313.12;4236955;33;33794;-74
2021/12/01 02:54:05;;;;;;;2.40;1.65;;;;;;;4.89;75.81;98323.53;4249937;33;34237;-76
2021/12/01 02:56:34;;;;;;;3.60;1.90;;;;;;;5.24;74.73;98327.66;4261796;33;34510;-75
2021/12/01 02:59:04;;;;;;;2.20;1.52;;;;;;;4.93;75.74;98320.06;4260691;33;33808;-74
2021/12/01 03:01:32;;;;;;;2.53;1.50;;;;;;;4.81;75.94;98320.12;4249161;33;33875;-75
2021/12/01 03:04:01;;;;;;;3.05;1.70;;;;;;;4.77;76.49;98311.53;4262448;33;34967;-75
2021/12/01 03:06:29;;;;;;;2.75;1.50;;;;;;;4.92;75.98;98318.34;4237179;33;33821;-74
2021/12/01 03:08:57;;;;;;;1.62;1.52;;;;;;;5.12;74.99;98311.38;4238288;33;33722;-73
2021/12/01 03:11:25;;;;;;;1.65;1.40;;;;;;;4.93;75.30;98312.34;4261757;33;33970;-74
2021/12/01 03:13:54;;;;;;;5.00;1.60;;;;;;;5.02;74.72;98308.84;4262438;33;35208;-75
2021/12/01 03:16:23;;;;;;;3.45;1.75;;;;;;;4.63;76.00;98319.34;4261276;33;34622;-73
2021/12/01 03:18:51;;;;;;;1.75;1.30;;;;;;;4.68;75.87;98314.16;4262409;33;33799;-74
2021/12/01 03:21:19;;;;;;;3.50;1.73;;;;;;;4.49;76.73;98328.84;4249074;33;34924;-74
2021/12/01 03:23:47;;;;;;;2.25;1.10;;;;;;;5.12;74.39;98323.44;4235505;33;35043;-75
2021/12/01 03:26:16;;;;;;;1.30;1.20;;;;;;;4.94;74.97;98321.78;4235397;33;34473;-71
2021/12/01 03:28:43;;;;;;;1.00;1.00;;;;;;;4.84;75.43;98323.56;4255999;33;34412;-74
2021/12/01 03:31:11;;;;;;;1.33;1.23;;;;;;;4.70;75.53;98327.91;4248023;33;34162;-76
2021/12/01 03:33:39;;;;;;;1.50;1.40;;;;;;;5.22;73.93;98331.97;4260891;33;35062;-73
2021/12/01 03:36:07;;;;;;;0.90;0.90;;;;;;;4.96;73.91;98332.97;4260690;33;34733;-72
2021/12/01 03:38:35;;;;;;;1.37;1.10;;;;;;;4.76;74.96;98333.03;4261305;33;34500;-72
2021/12/01 03:41:03;;;;;;;1.40;1.00;;;;;;;4.88;74.77;98339.87;4262219;33;33569;-74
2021/12/01 03:43:31;;;;;;;1.50;0.90;;;;;;;5.04;74.21;98328.59;4257114;33;34920;-72
2021/12/01 03:46:01;;;;;;;0.82;0.82;;;;;;;4.97;73.85;98342.41;4247820;33;34323;-73
2021/12/01 03:48:29;;;;;;;0.90;0.90;;;;;;;5.11;73.64;98330.28;4258613;33;33634;-73
2021/12/01 03:50:57;;;;;;;1.00;0.90;;;;;;;5.30;72.81;98345.69;4262067;33;33893;-73
2021/12/01 03:53:25;;;;;;;0.70;0.70;;;;;;;5.21;73.00;98350.91;4261190;33;34944;-72
2021/12/01 03:55:54;;;;;;;0.70;0.70;;;;;;;5.15;72.97;98345.75;4260865;33;34321;-73
2021/12/01 03:58:21;;;;;;;0.80;0.80;;;;;;;5.03;73.08;98352.72;4261614;33;33620;-74
2021/12/01 04:00:49;;;;;;;0.80;0.80;;;;;;;5.18;73.16;98345.75;4261928;33;34819;-72
2021/12/01 04:03:17;;;;;;;1.30;0.90;;;;;;;5.27;72.80;98340.53;4257034;33;35008;-75
2021/12/01 04:05:46;;;;;;;0.70;0.70;;;;;;;5.05;73.35;98335.50;4247818;33;34592;-75
2021/12/01 04:08:14;;;;;;;0.90;0.82;;;;;;;5.19;73.02;98343.16;4244439;33;33714;-75
2021/12/01 04:10:42;;;;;;;0.50;0.50;;;;;;;5.32;72.65;98344.81;4236952;33;34117;-74
2021/12/01 04:13:10;;;;;;;0.80;0.80;;;;;;;5.39;72.00;98355.97;4260900;33;35095;-71
2021/12/01 04:15:39;;;;;;;0.75;0.70;;;;;;;5.18;73.01;98340.59;4260693;33;34658;-73
2021/12/01 04:18:07;;;;;;;0.70;0.70;;;;;;;5.19;72.96;98338.00;4261165;33;33505;-73
2021/12/01 04:20:35;;;;;;;0.70;0.70;;;;;;;5.20;72.94;98354.34;4261936;33;34830;-72
2021/12/01 04:23:03;;;;;;;0.60;0.60;;;;;;;5.26;72.95;98349.16;4260891;33;35058;-73
2021/12/01 04:25:31;;;;;;;1.62;1.50;;;;;;;5.13;73.60;98363.84;4261919;33;35297;-74
2021/12/01 04:27:59;;;;;;;0.60;0.60;;;;;;;5.13;74.00;98362.13;4256563;33;33839;-73
2021/12/01 04:30:27;;;;;;;0.70;0.70;;;;;;;5.32;73.45;98360.28;4252238;33;34365;-74
2021/12/01 04:32:57;;;;;;;0.60;0.60;;;;;;;5.30;73.20;98372.34;4256477;33;34928;-74
2021/12/01 04:35:27;;;;;;;0.70;0.70;;;;;;;5.52;72.81;98379.97;4247996;33;271763;-73
2021/12/01 04:37:55;;;;;;;0.73;0.73;;;;;;;5.22;73.58;98373.25;4247541;33;33539;-74
2021/12/01 04:40:24;;;;;;;0.62;0.62;;;;;;;4.88;75.02;98383.72;4260905;33;33978;-74
2021/12/01 04:42:52;;;;;;;0.73;0.73;;;;;;;5.20;74.16;98380.16;4236213;33;35486;-75
2021/12/01 04:45:22;;;;;;;0.98;0.80;;;;;;;5.19;74.09;98388.75;4248874;33;34676;-72
2021/12/01 04:47:52;;;;;;;0.95;0.95;;;;;;;5.18;74.16;98392.22;4260307;33;33781;-72
2021/12/01 04:50:22;;;;;;;0.80;0.80;;;;;;;5.34;73.43;98399.00;4247830;33;34179;-72
2021/12/01 04:52:51;;;;;;;0.75;0.75;;;;;;;5.31;73.44;98399.91;4246957;33;34906;-73
2021/12/01 04:55:19;;;;;;;0.80;0.80;;;;;;;5.34;73.40;98403.31;4260498;33;34609;-71
2021/12/01 04:57:48;;;;;;;1.23;1.05;;;;;;;5.50;72.71;98410.97;4260892;33;34498;-72
2021/12/01 05:00:22;;;;;;;1.02;0.90;;;;;;;5.19;73.89;98409.41;4248235;33;34837;-71
2021/12/01 05:02:49;;;;;;;0.90;0.90;;;;;;;5.57;72.81;98416.09;4260744;33;35104;-72
2021/12/01 05:05:18;;;;;;;2.22;1.20;;;;;;;5.53;72.39;98424.75;4261561;33;35009;-73
2021/12/01 05:07:46;;;;;;;2.30;1.10;;;;;;;5.51;72.63;98432.50;4256620;33;33512;-74
2021/12/01 05:10:14;;;;;;;1.35;1.00;;;;;;;5.46;73.10;98424.75;4246369;33;33840;-73
2021/12/01 05:12:43;;;;;;;1.52;1.10;;;;;;;5.15;73.84;98428.34;4251507;33;35193;-75
2021/12/01 05:15:11;;;;;;;2.47;1.10;;;;;;;5.84;71.96;98439.19;4261737;33;35234;-75
2021/12/01 05:17:39;;;;;;;1.02;0.90;;;;;;;5.74;71.54;98450.44;4260573;33;33650;-74
2021/12/01 05:20:08;;;;;;;3.53;2.28;;;;;;;6.02;70.47;98460.66;4248271;33;34796;-75
2021/12/01 05:22:36;;;;;;;1.62;1.35;;;;;;;6.04;70.60;98470.09;4236654;33;35030;-76
2021/12/01 05:25:05;;;;;;;2.53;1.17;;;;;;;6.15;70.46;98482.94;4260634;33;34601;-74
2021/12/01 05:27:33;;;;;;;2.65;1.65;;;;;;;6.01;71.17;98484.75;4235526;33;32928;-75
2021/12/01 05:30:01;;;;;;;1.85;1.37;;;;;;;5.86;71.86;98494.28;4260502;33;33892;-75
2021/12/01 05:32:30;;;;;;;2.83;1.65;;;;;;;5.87;71.77;98496.00;4260700;33;35302;-76
2021/12/01 05:34:59;;;;;;;2.40;1.48;;;;;;;6.05;71.73;98496.78;4261444;33;34498;-75
2021/12/01 05:37:26;;;;;;;3.62;1.80;;;;;;;6.16;71.08;98489.84;4258925;33;33619;-77
2021/12/01 05:39:54;;;;;;;3.50;1.50;;;;;;;5.69;72.92;98502.13;4246305;33;34578;-77
2021/12/01 05:42:22;;;;;;;2.47;1.37;;;;;;;5.86;72.65;98501.19;4248544;33;35060;-75
2021/12/01 05:44:50;;;;;;;1.92;1.50;;;;;;;5.88;72.30;98513.22;4247984;33;34433;-75
2021/12/01 05:47:18;;;;;;;2.53;1.40;;;;;;;5.53;73.87;98512.53;4260822;33;33667;-75
2021/12/01 05:49:46;;;;;;;1.52;1.20;;;;;;;5.44;74.11;98522.03;4261575;33;33487;-74
2021/12/01 05:52:15;;;;;;;1.45;1.10;;;;;;;5.59;73.78;98522.84;4260699;33;35048;-75
2021/12/01 05:54:44;;;;;;;1.40;1.17;;;;;;;5.58;73.87;98526.28;4248547;33;34694;-74
2021/12/01 05:57:12;;;;;;;1.50;1.20;;;;;;;5.83;73.38;98533.06;4248305;33;34530;-74
2021/12/01 05:59:39;;;;;;;1.60;1.10;;;;;;;5.89;73.15;98538.22;4249342;33;33860;-75
2021/12/01 06:02:08;;;;;;;1.30;1.10;;;;;;;5.81;72.89;98539.13;4260003;33;35190;-75
2021/12/01 06:04:37;;;;;;;1.30;1.20;;;;;;;5.66;73.73;98540.88;4236810;33;33884;-74
2021/12/01 06:07:05;;;;;;;1.52;1.30;;;;;;;5.39;74.55;98536.66;4261267;33;33720;-77
2021/12/01 06:09:33;;;;;;;3.25;1.50;;;;;;;6.11;71.66;98538.13;4247768;33;34009;-76
2021/12/01 06:12:02;;;;;;;2.10;1.50;;;;;;;5.98;72.40;98536.47;4261407;33;34948;-74
2021/12/01 06:14:30;;;;;;;2.17;1.52;;;;;;;5.32;75.48;98542.72;4223427;33;33020;-75
2021/12/01 06:16:59;;;;;;;2.33;1.75;;;;;;;5.30;75.34;98544.44;4241549;33;33500;-77
2021/12/01 06:19:27;;;;;;;2.05;1.33;;;;;;;5.64;74.35;98549.50;4254568;33;34017;-78
2021/12/01 06:21:55;;;;;;;2.78;1.50;;;;;;;5.66;74.34;98555.50;4248375;33;34371;-77
2021/12/01 06:24:23;;;;;;;2.35;1.52;;;;;;;5.39;75.27;98553.91;4258730;33;35285;-74
2021/12/01 06:26:51;;;;;;;1.25;1.10;;;;;;;5.80;73.86;98550.28;4248120;33;32790;-76
2021/12/01 06:29:19;;;;;;;3.00;1.27;;;;;;;6.05;73.13;98564.00;4260110;33;33968;-76
2021/12/01 06:31:47;;;;;;;2.42;1.50;;;;;;;5.26;75.92;98571.13;4261083;33;34670;-77
2021/12/01 06:34:15;;;;;;;1.58;1.15;;;;;;;5.35;75.60;98576.28;4260411;33;34567;-76
2021/12/01 06:36:43;;;;;;;1.48;1.20;;;;;;;5.78;74.46;98576.13;4247923;33;32796;-77
2021/12/01 06:39:15;;;;;;;2.40;1.52;;;;;;;6.34;72.20;98579.34;4235973;33;34163;-77
2021/12/01 06:41:43;;;;;;;1.55;1.33;;;;;;;6.07;73.10;98581.22;4259764;33;35144;-76
2021/12/01 06:44:12;;;;;;;1.90;1.30;;;;;;;5.76;74.54;98588.19;4257749;33;35359;-75
2021/12/01 06:46:40;;;;;;;4.20;1.40;;;;;;;5.97;73.63;98591.63;4259684;33;34491;-78
2021/12/01 06:49:08;;;;;;;2.22;1.50;;;;;;;5.62;74.84;98596.00;4237805;33;34801;-78
2021/12/01 06:51:36;;;;;;;2.40;1.62;;;;;;;5.57;75.66;98596.88;4246574;33;35182;-77
2021/12/01 06:54:04;;;;;;;5.55;1.40;;;;;;;5.76;75.18;98601.13;4241659;33;34553;-77
2021/12/01 06:56:32;;;;;;;1.12;1.05;;;;;;;6.01;73.97;98598.47;4258981;33;33768;-77
2021/12/01 06:59:00;;;;;;;2.62;1.50;;;;;;;5.77;74.59;98600.28;4259238;33;34833;-77
2021/12/01 07:01:28;;;;;;;1.67;1.40;;;;;;;6.24;72.97;98595.78;4259607;33;36047;-77
2021/12/01 07:03:56;;;;;;;2.05;1.20;;;;;;;5.99;73.73;98597.63;4258988;33;35287;-78
2021/12/01 07:06:24;;;;;;;2.62;1.65;;;;;;;5.84;74.36;98601.97;4247877;33;33743;-78
2021/12/01 07:08:52;;;;;;;3.67;1.48;;;;;;;6.31;73.10;98592.28;4239902;33;33925;-77
2021/12/01 07:11:20;;;;;;;5.00;1.90;;;;;;;6.22;73.28;98585.44;4247860;33;36005;-77
2021/12/01 07:13:48;;;;;;;2.08;1.40;;;;;;;6.70;71.65;98581.69;4254790;33;35334;-77
2021/12/01 07:16:16;;;;;;;2.87;1.40;;;;;;;6.97;70.83;98565.97;4260281;33;33669;-77
2021/12/01 07:18:44;;;;;;;4.22;2.40;;;;;;;6.69;70.28;98561.84;4242945;33;33986;-77
2021/12/01 07:21:12;;;;;;;1.37;1.15;;;;;;;5.65;75.67;98584.81;4247108;33;35028;-77
2021/12/01 07:23:40;;;;;;;3.40;1.75;;;;;;;5.89;73.59;98587.31;4252981;33;35298;-77
2021/12/01 07:26:09;;;;;;;4.68;1.73;;;;;;;5.84;74.62;98586.47;4261305;33;33698;-77
2021/12/01 07:28:37;;;;;;;2.28;1.45;;;;;;;6.43;72.50;98581.88;4248988;33;33601;-76
2021/12/01 07:31:05;;;;;;;4.45;1.87;;;;;;;6.22;73.72;98590.59;4262365;33;36032;-77
2021/12/01 07:33:34;;;;;;;2.78;1.75;;;;;;;6.03;74.57;98581.22;4257991;33;34587;-74
2021/12/01 07:36:02;;;;;;;2.53;1.58;;;;;;;6.19;73.95;98584.59;4261736;33;34333;-77
2021/12/01 07:38:30;;;;;;;2.33;1.48;;;;;;;5.94;74.93;98582.09;4248190;33;33892;-76
2021/12/01 07:40:58;;;;;;;2.90;1.52;;;;;;;6.50;72.37;98582.69;4249369;33;34458;-77
2021/12/01 07:43:26;;;;;;;3.47;1.70;;;;;;;6.38;73.03;98575.00;4261255;33;34606;-75
2021/12/01 07:45:55;;;;;;;2.22;1.30;;;;;;;6.97;71.61;98584.06;4237990;33;34177;-77
2021/12/01 07:48:23;;;;;;;2.78;1.62;;;;;;;6.92;71.74;98579.78;4248970;33;33894;-75
2021/12/01 07:50:50;;;;;;;3.65;2.20;;;;;;;6.97;72.18;98578.91;4262166;33;35916;-76
2021/12/01 07:53:19;;;;;;;3.45;1.90;;;;;;;6.58;73.77;98562.81;4259298;33;34528;-76
2021/12/01 07:55:47;;;;;;;2.37;1.55;;;;;;;6.63;74.22;98558.44;4262306;33;33676;-79
2021/12/01 07:58:15;;;;;;;1.95;1.50;;;;;;;6.50;75.91;98551.66;4261708;33;33810;-74
2021/12/01 08:00:43;;;;;;;8.02;3.50;;;;;;;6.29;76.69;98556.97;4262123;33;35847;-77
2021/12/01 08:03:11;;;;;;;17.12;6.57;;;;;;;6.70;76.09;98555.81;4261681;33;34905;-75
2021/12/01 08:05:39;;;;;;;7.07;3.45;;;;;;;7.22;74.14;98552.78;4249440;33;34611;-75
2021/12/01 08:08:08;;;;;;;1.55;1.40;;;;;;;6.96;74.93;98556.47;4260566;33;34842;-77
2021/12/01 08:10:36;;;;;;;1.23;1.10;;;;;;;6.98;74.71;98554.72;4261902;33;35841;-72
2021/12/01 08:13:04;;;;;;;1.95;1.30;;;;;;;7.14;73.65;98558.03;4261328;33;34562;-73
2021/12/01 08:15:47;;;;;;;1.35;1.10;;;;;;;7.16;73.86;98566.63;4262210;33;33680;-73
2021/12/01 08:18:16;;;;;;;2.15;1.20;;;;;;;6.63;75.89;98563.62;4260627;33;34636;-72
2021/12/01 08:20:44;;;;;;;2.10;1.30;;;;;;;6.73;75.41;98560.97;4249345;33;35203;-73
2021/12/01 08:23:12;;;;;;;1.58;1.00;;;;;;;7.28;74.54;98557.88;4259486;33;35325;-73
2021/12/01 08:25:41;;;;;;;1.83;1.10;;;;;;;7.11;75.51;98552.91;4260970;33;33654;-73
2021/12/01 08:28:09;;;;;;;1.85;1.20;;;;;;;7.67;73.31;98555.72;4259407;33;33850;-73
2021/12/01 08:30:37;;;;;;;1.87;1.45;;;;;;;7.56;73.80;98552.41;4261879;33;35199;-72
2021/12/01 08:33:05;;;;;;;3.85;1.73;;;;;;;7.67;73.01;98560.06;4261297;33;35335;-73
2021/12/01 08:35:33;;;;;;;6.70;3.80;;;;;;;8.19;70.86;98558.53;4262004;33;33651;-73
2021/12/01 08:38:01;;;;;;;2.62;1.80;;;;;;;7.57;73.51;98564.47;4260063;33;33942;-73
2021/12/01 08:40:29;;;;;;;1.85;1.30;;;;;;;7.39;74.47;98581.97;4261316;33;35028;-72
2021/12/01 08:42:57;;;;;;;6.10;2.03;;;;;;;7.05;76.27;98565.88;4261130;33;34692;-72
2021/12/01 08:45:25;;;;;;;4.37;2.17;;;;;;;7.13;76.43;98573.56;4247826;33;33616;-73
2021/12/01 08:47:53;;;;;;;2.60;1.80;;;;;;;6.71;78.58;98560.16;4258404;33;34023;-74
2021/12/01 08:50:21;;;;;;;5.22;2.20;;;;;;;6.92;77.91;98564.25;4260770;33;36126;-72
2021/12/01 08:52:49;;;;;;;3.83;2.22;;;;;;;7.05;77.78;98555.53;4261254;33;35213;-72
2021/12/01 08:55:21;;;;;;;3.67;1.65;;;;;;;7.15;77.71;98551.97;4258718;33;33753;-73
2021/12/01 08:58:11;;;;;;;4.25;1.80;;;;;;;6.96;79.15;98556.47;4259999;33;33997;-71
2021/12/01 09:00:44;;;;;;;2.92;1.50;;;;;;;7.39;77.21;98561.25;4246889;33;34933;-72
2021/12/01 09:03:13;;;;;;;1.73;1.60;;;;;;;7.91;75.39;98548.56;4247492;33;34641;-72
2021/12/01 09:05:44;;;;;;;2.12;1.50;;;;;;;7.55;77.25;98555.88;4259187;33;33742;-72
2021/12/01 09:08:15;;;;;;;3.67;1.87;;;;;;;7.48;78.13;98551.63;4259024;33;33886;-72
2021/12/01 09:10:45;;;;;;;2.30;1.55;;;;;;;7.12;77.85;98545.97;4246715;33;33987;-71
2021/12/01 09:13:14;;;;;;;3.50;1.87;;;;;;;7.06;78.88;98540.84;4260798;33;35114;-72
2021/12/01 09:15:43;;;;;;;2.75;1.67;;;;;;;6.97;79.36;98532.31;4261664;33;33659;-72
2021/12/01 09:18:11;;;;;;;3.70;1.95;;;;;;;7.45;78.53;98525.75;4260604;33;34070;-72
2021/12/01 09:20:40;;;;;;;2.00;1.30;;;;;;;7.88;76.27;98518.34;4259605;33;35860;-72
2021/12/01 09:23:07;;;;;;;1.98;1.40;;;;;;;8.95;71.06;98507.22;4260721;33;34464;-72
2021/12/01 09:25:36;;;;;;;2.58;1.50;;;;;;;8.13;74.00;98513.66;4247451;33;33734;-72
2021/12/01 09:28:15;;;;;;;3.92;1.98;;;;;;;7.77;76.39;98521.06;4247717;33;33609;-71
2021/12/01 09:30:44;;;;;;;2.80;1.65;;;;;;;7.88;75.61;98535.63;4261514;33;35930;-70
2021/12/01 09:33:13;;;;;;;5.32;2.47;;;;;;;7.49;78.58;98532.66;4247924;33;35112;-71
2021/12/01 09:35:43;;;;;;;4.82;2.33;;;;;;;7.46;79.86;98535.25;4260661;33;33739;-71
2021/12/01 09:38:14;;;;;;;5.82;2.50;;;;;;;7.59;80.20;98534.25;4247131;33;34029;-73
2021/12/01 09:40:46;;;;;;;4.57;2.53;;;;;;;7.84;77.76;98526.19;4246155;33;35151;-72
2021/12/01 09:43:16;;;;;;;3.95;2.62;;;;;;;7.54;75.14;98510.13;4247178;33;34620;-72
2021/12/01 09:45:46;;;;;;;6.93;2.92;;;;;;;7.50;75.92;98500.66;4239181;33;34389;-72
2021/12/01 09:48:14;;;;;;;6.00;3.22;;;;;;;8.18;75.64;98494.59;4260337;33;33361;-71
2021/12/01 09:50:42;;;;;;;4.12;2.17;;;;;;;8.31;70.49;98490.94;4260734;33;35060;-72
2021/12/01 09:53:14;;;;;;;5.55;2.70;;;;;;;7.66;72.15;98486.66;4260764;33;34394;-72
2021/12/01 09:55:43;;;;;;;7.15;2.92;;;;;;;7.84;72.39;98479.53;4260239;33;33547;-71
2021/12/01 09:58:23;;;;;;;9.25;3.28;;;;;;;7.92;73.74;98481.16;4248290;33;33190;-72
2021/12/01 10:00:55;;;;;;;5.05;3.30;;;;;;;7.48;75.31;98492.94;4247792;33;35057;-72
2021/12/01 10:03:25;;;;;;;5.53;2.80;;;;;;;7.39;75.09;98499.09;4247905;33;34594;-72
2021/12/01 10:06:11;;;;;;;5.20;2.53;;;;;;;7.36;75.03;98478.41;4257451;33;33749;-70
2021/12/01 10:08:53;;;;;;;5.05;3.10;;;;;;;7.20;73.45;98487.22;4225593;33;34727;-71
2021/12/01 10:11:27;;;;;;;7.75;3.62;;;;;;;7.20;74.76;98482.03;4248494;33;35141;-70
2021/12/01 10:13:57;;;;;;;5.95;3.25;;;;;;;6.99;73.63;98483.13;4260206;33;34331;-70
2021/12/01 10:16:28;;;;;;;3.15;2.10;;;;;;;7.03;73.08;98474.44;4260518;33;32779;-70
2021/12/01 10:18:59;;;;;;;7.87;3.00;;;;;;;6.93;71.40;98475.41;4247987;33;33763;-70
2021/12/01 10:21:30;;;;;;;4.62;2.92;;;;;;;6.57;72.42;98475.75;4248327;33;34410;-70
2021/12/01 10:24:03;;;;;;;9.65;3.08;;;;;;;6.82;72.48;98480.69;4260396;33;35258;-71
2021/12/01 10:26:34;;;;;;;6.70;3.70;;;;;;;7.22;69.68;98490.66;4261175;33;33643;-73
2021/12/01 10:29:05;;;;;;;6.15;2.85;;;;;;;7.01;69.95;98486.56;4246521;33;33961;-70
2021/12/01 10:31:41;;;;;;;4.85;2.83;;;;;;;7.19;69.31;98495.84;4248473;33;35063;-71
2021/12/01 10:34:29;;;;;;;8.43;2.92;;;;;;;7.21;69.14;98494.94;4260342;33;34465;-71
2021/12/01 10:37:10;;;;;;;6.07;3.50;;;;;;;6.69;68.56;98492.87;4261088;33;34401;-71
2021/12/01 10:39:40;;;;;;;4.37;2.12;;;;;;;6.83;67.91;98492.75;4260323;33;34644;-71
2021/12/01 10:42:11;;;;;;;4.62;3.15;;;;;;;6.80;68.02;98495.38;4260294;33;35206;-71
2021/12/01 10:44:55;;;;;;;6.62;3.20;;;;;;;6.94;68.46;98488.34;4260205;33;35251;-71
2021/12/01 10:47:23;;;;;;;6.15;3.55;;;;;;;7.31;67.12;98477.59;4262720;33;33608;-71
2021/12/01 10:49:51;;;;;;;6.10;2.75;;;;;;;7.40;68.19;98468.84;4242519;33;33865;-71
2021/12/01 10:52:32;;;;;;;9.85;3.10;;;;;;;7.70;67.39;98477.13;4256822;33;35230;-71
2021/12/01 10:55:07;;;;;;;5.90;2.78;;;;;;;7.37;66.79;98474.06;4249468;33;35046;-72
2021/12/01 10:57:44;;;;;;;11.35;3.83;;;;;;;7.51;67.53;98466.97;4262517;33;33684;-71
2021/12/01 11:00:27;;;;;;;5.80;2.97;;;;;;;7.10;66.40;98451.94;4245938;33;33889;-71
2021/12/01 11:03:25;;;;;;;2.70;2.00;;;;;;;7.54;66.93;98456.59;4237998;33;33522;-71
2021/12/01 11:06:07;;;;;;;5.70;2.78;;;;;;;7.53;66.41;98461.78;4252989;33;35131;-71
2021/12/01 11:08:40;;;;;;;3.47;2.47;;;;;;;7.42;66.74;98458.47;4259493;33;33057;-71
2021/12/01 11:11:17;;;;;;;4.55;2.80;;;;;;;7.63;66.94;98462.53;4248280;33;33557;-71
2021/12/01 11:14:10;;;;;;;4.57;2.42;;;;;;;7.70;65.78;98452.06;4250417;33;35972;-71
2021/12/01 11:16:40;;;;;;;5.60;3.12;;;;;;;7.05;68.53;98451.13;4249906;33;34368;-73
2021/12/01 11:19:09;;;;;;;5.72;2.65;;;;;;;7.53;67.37;98436.72;4261607;33;33655;-72
2021/12/01 11:21:39;;;;;;;4.78;2.70;;;;;;;7.72;67.06;98424.38;4262494;33;33977;-71
2021/12/01 11:24:12;;;;;;;2.95;1.58;;;;;;;7.72;66.88;98424.38;4261065;33;35806;-71
2021/12/01 11:26:44;;;;;;;3.85;2.53;;;;;;;7.95;64.54;98420.59;4262461;33;34191;-71
2021/12/01 11:29:33;;;;;;;5.68;2.67;;;;;;;8.18;64.17;98409.03;4251161;33;33686;-71
2021/12/01 11:32:01;;;;;;;10.95;2.70;;;;;;;8.51;63.62;98398.13;4249565;33;33801;-73
2021/12/01 11:34:29;;;;;;;3.78;2.40;;;;;;;8.45;64.96;98395.63;4260204;33;34866;-74
2021/12/01 11:36:57;;;;;;;4.43;2.42;;;;;;;8.73;62.94;98392.53;4259977;33;35344;-72
2021/12/01 11:39:30;;;;;;;4.37;2.30;;;;;;;8.62;61.56;98377.16;4248561;33;33767;-73
2021/12/01 11:41:58;;;;;;;3.90;2.35;;;;;;;8.79;62.53;98369.06;4261105;33;34839;-73
2021/12/01 11:44:26;;;;;;;4.43;2.37;;;;;;;8.67;62.02;98367.56;4259986;33;35058;-73
2021/12/01 11:46:54;;;;;;;5.07;2.60;;;;;;;8.60;62.42;98357.31;4248236;33;34612;-73
2021/12/01 11:49:24;;;;;;;5.82;2.40;;;;;;;8.59;62.84;98355.59;4259850;33;33918;-72
2021/12/01 11:51:56;;;;;;;3.75;2.42;;;;;;;9.07;63.64;98347.72;4260011;33;34576;-73
2021/12/01 11:54:26;;;;;;;5.12;2.72;;;;;;;9.35;61.12;98342.78;4261624;33;35077;-73
2021/12/01 11:56:55;;;;;;;5.07;2.50;;;;;;;9.03;61.50;98335.69;4261298;33;34483;-73
2021/12/01 11:59:27;;;;;;;3.87;1.85;;;;;;;9.18;60.33;98343.19;4260666;33;33614;-73
2021/12/01 12:01:59;;;;;;;6.10;2.53;;;;;;;9.67;57.94;98323.91;4249237;33;33895;-73